sensor_id;sensor_type;location;lat;lon;timestamp;P1;durP1;ratioP1;P2;durP2;ratioP2
45254;SDS011;30989;52.078;21.014;2023-02-18T00:01:02;7.65;;;1.90;;
45254;SDS011;30989;52.078;21.014;2023-02-18T00:03:32;4.53;;;1.13;;
45254;SDS011;30989;52.078;21.014;2023-02-18T00:05:57;5.30;;;1.08;;
45254;SDS011;30989;52.078;21.014;2023-02-18T00:08:23;2.45;;;0.77;;
45254;SDS011;30989;52.078;21.014;2023-02-18T00:10:48;6.85;;;1.60;;
45254;SDS011;30989;52.078;21.014;2023-02-18T00:13:14;9.52;;;1.38;;
45254;SDS011;30989;52.078;21.014;2023-02-18T00:15:39;5.22;;;1.17;;
45254;SDS011;30989;52.078;21.014;2023-02-18T00:18:05;4.80;;;1.17;;
45254;SDS011;30989;52.078;21.014;2023-02-18T00:20:31;6.07;;;1.58;;
45254;SDS011;30989;52.078;21.014;2023-02-18T00:22:57;5.65;;;1.65;;
45254;SDS011;30989;52.078;21.014;2023-02-18T00:25:23;3.90;;;1.02;;
45254;SDS011;30989;52.078;21.014;2023-02-18T00:27:49;6.80;;;2.05;;
45254;SDS011;30989;52.078;21.014;2023-02-18T00:30:14;8.40;;;1.42;;
45254;SDS011;30989;52.078;21.014;2023-02-18T00:32:40;9.63;;;1.85;;
45254;SDS011;30989;52.078;21.014;2023-02-18T00:35:05;8.88;;;1.95;;
45254;SDS011;30989;52.078;21.014;2023-02-18T00:37:31;6.75;;;1.40;;
45254;SDS011;30989;52.078;21.014;2023-02-18T00:39:56;15.35;;;1.50;;
45254;SDS011;30989;52.078;21.014;2023-02-18T00:42:22;7.10;;;1.40;;
45254;SDS011;30989;52.078;21.014;2023-02-18T00:44:47;4.07;;;0.90;;
45254;SDS011;30989;52.078;21.014;2023-02-18T00:47:13;6.90;;;1.60;;
45254;SDS011;30989;52.078;21.014;2023-02-18T00:49:38;6.63;;;1.00;;
45254;SDS011;30989;52.078;21.014;2023-02-18T00:52:04;6.28;;;1.83;;
45254;SDS011;30989;52.078;21.014;2023-02-18T00:54:29;5.57;;;2.03;;
45254;SDS011;30989;52.078;21.014;2023-02-18T00:56:55;5.05;;;1.30;;
45254;SDS011;30989;52.078;21.014;2023-02-18T00:59:20;3.35;;;0.95;;
45254;SDS011;30989;52.078;21.014;2023-02-18T01:01:46;6.28;;;1.25;;
45254;SDS011;30989;52.078;21.014;2023-02-18T01:04:11;6.85;;;1.23;;
45254;SDS011;30989;52.078;21.014;2023-02-18T01:06:37;5.38;;;1.23;;
45254;SDS011;30989;52.078;21.014;2023-02-18T01:09:03;5.47;;;1.20;;
45254;SDS011;30989;52.078;21.014;2023-02-18T01:11:29;6.50;;;0.93;;
45254;SDS011;30989;52.078;21.014;2023-02-18T01:13:55;9.98;;;1.33;;
45254;SDS011;30989;52.078;21.014;2023-02-18T01:16:20;8.02;;;2.28;;
45254;SDS011;30989;52.078;21.014;2023-02-18T01:18:46;5.80;;;1.08;;
45254;SDS011;30989;52.078;21.014;2023-02-18T01:21:11;7.50;;;1.35;;
45254;SDS011;30989;52.078;21.014;2023-02-18T01:23:38;9.90;;;1.92;;
45254;SDS011;30989;52.078;21.014;2023-02-18T01:26:05;6.43;;;1.80;;
45254;SDS011;30989;52.078;21.014;2023-02-18T01:28:31;7.55;;;2.25;;
45254;SDS011;30989;52.078;21.014;2023-02-18T01:30:57;6.85;;;2.00;;
45254;SDS011;30989;52.078;21.014;2023-02-18T01:33:23;3.65;;;1.15;;
45254;SDS011;30989;52.078;21.014;2023-02-18T01:35:49;8.25;;;1.75;;
45254;SDS011;30989;52.078;21.014;2023-02-18T01:38:16;4.53;;;1.63;;
45254;SDS011;30989;52.078;21.014;2023-02-18T01:40:47;5.57;;;1.10;;
45254;SDS011;30989;52.078;21.014;2023-02-18T01:43:15;4.85;;;1.10;;
45254;SDS011;30989;52.078;21.014;2023-02-18T01:51:19;6.82;;;1.38;;
45254;SDS011;30989;52.078;21.014;2023-02-18T01:56:21;6.47;;;1.33;;
45254;SDS011;30989;52.078;21.014;2023-02-18T01:58:54;6.35;;;1.67;;
45254;SDS011;30989;52.078;21.014;2023-02-18T02:01:21;6.68;;;1.05;;
45254;SDS011;30989;52.078;21.014;2023-02-18T02:03:48;6.45;;;1.40;;
45254;SDS011;30989;52.078;21.014;2023-02-18T02:06:18;6.72;;;2.03;;
45254;SDS011;30989;52.078;21.014;2023-02-18T02:08:48;7.65;;;1.20;;
45254;SDS011;30989;52.078;21.014;2023-02-18T02:11:22;6.47;;;1.42;;
45254;SDS011;30989;52.078;21.014;2023-02-18T02:14:14;8.13;;;1.40;;
45254;SDS011;30989;52.078;21.014;2023-02-18T02:17:02;9.05;;;1.20;;
45254;SDS011;30989;52.078;21.014;2023-02-18T02:19:47;6.15;;;1.33;;
45254;SDS011;30989;52.078;21.014;2023-02-18T02:36:31;8.88;;;1.70;;
45254;SDS011;30989;52.078;21.014;2023-02-18T02:39:14;7.13;;;1.80;;
45254;SDS011;30989;52.078;21.014;2023-02-18T02:42:04;12.02;;;1.63;;
45254;SDS011;30989;52.078;21.014;2023-02-18T02:44:46;10.05;;;1.92;;
45254;SDS011;30989;52.078;21.014;2023-02-18T02:47:20;7.60;;;1.35;;
45254;SDS011;30989;52.078;21.014;2023-02-18T02:52:51;7.45;;;1.80;;
45254;SDS011;30989;52.078;21.014;2023-02-18T02:55:22;5.83;;;1.03;;
45254;SDS011;30989;52.078;21.014;2023-02-18T02:57:50;7.88;;;2.35;;
45254;SDS011;30989;52.078;21.014;2023-02-18T03:00:30;6.68;;;1.30;;
45254;SDS011;30989;52.078;21.014;2023-02-18T03:08:46;7.97;;;1.80;;
45254;SDS011;30989;52.078;21.014;2023-02-18T03:11:21;6.35;;;1.42;;
45254;SDS011;30989;52.078;21.014;2023-02-18T03:13:50;7.88;;;1.70;;
45254;SDS011;30989;52.078;21.014;2023-02-18T03:16:25;7.55;;;1.52;;
45254;SDS011;30989;52.078;21.014;2023-02-18T03:19:00;10.98;;;1.73;;
45254;SDS011;30989;52.078;21.014;2023-02-18T03:21:34;13.20;;;2.10;;
45254;SDS011;30989;52.078;21.014;2023-02-18T03:24:06;6.97;;;1.33;;
45254;SDS011;30989;52.078;21.014;2023-02-18T03:29:06;5.68;;;1.63;;
45254;SDS011;30989;52.078;21.014;2023-02-18T03:31:35;5.85;;;2.00;;
45254;SDS011;30989;52.078;21.014;2023-02-18T03:34:04;11.30;;;1.40;;
45254;SDS011;30989;52.078;21.014;2023-02-18T03:36:35;12.77;;;1.60;;
45254;SDS011;30989;52.078;21.014;2023-02-18T03:39:03;6.80;;;1.15;;
45254;SDS011;30989;52.078;21.014;2023-02-18T03:41:32;6.68;;;2.35;;
45254;SDS011;30989;52.078;21.014;2023-02-18T03:43:59;9.20;;;1.40;;
45254;SDS011;30989;52.078;21.014;2023-02-18T03:46:27;5.93;;;1.02;;
45254;SDS011;30989;52.078;21.014;2023-02-18T03:48:54;5.72;;;1.30;;
45254;SDS011;30989;52.078;21.014;2023-02-18T03:51:19;7.88;;;2.05;;
45254;SDS011;30989;52.078;21.014;2023-02-18T03:53:45;9.02;;;1.65;;
45254;SDS011;30989;52.078;21.014;2023-02-18T03:56:11;16.58;;;2.00;;
45254;SDS011;30989;52.078;21.014;2023-02-18T03:58:37;5.90;;;1.15;;
45254;SDS011;30989;52.078;21.014;2023-02-18T04:01:03;6.68;;;1.88;;
45254;SDS011;30989;52.078;21.014;2023-02-18T04:03:29;10.13;;;1.85;;
45254;SDS011;30989;52.078;21.014;2023-02-18T04:05:54;6.93;;;1.40;;
45254;SDS011;30989;52.078;21.014;2023-02-18T04:08:20;4.80;;;1.30;;
45254;SDS011;30989;52.078;21.014;2023-02-18T04:10:45;9.55;;;1.35;;
45254;SDS011;30989;52.078;21.014;2023-02-18T04:13:11;15.73;;;2.10;;
45254;SDS011;30989;52.078;21.014;2023-02-18T04:15:36;7.32;;;1.27;;
45254;SDS011;30989;52.078;21.014;2023-02-18T04:18:02;6.15;;;1.50;;
45254;SDS011;30989;52.078;21.014;2023-02-18T04:20:28;6.93;;;1.63;;
45254;SDS011;30989;52.078;21.014;2023-02-18T04:22:53;8.90;;;1.55;;
45254;SDS011;30989;52.078;21.014;2023-02-18T04:25:19;4.38;;;1.52;;
45254;SDS011;30989;52.078;21.014;2023-02-18T04:27:44;5.75;;;1.38;;
45254;SDS011;30989;52.078;21.014;2023-02-18T04:30:10;10.10;;;1.40;;
45254;SDS011;30989;52.078;21.014;2023-02-18T04:32:36;9.73;;;1.65;;
45254;SDS011;30989;52.078;21.014;2023-02-18T04:35:01;9.52;;;1.98;;
45254;SDS011;30989;52.078;21.014;2023-02-18T04:37:27;9.85;;;1.50;;
45254;SDS011;30989;52.078;21.014;2023-02-18T04:39:53;8.63;;;1.50;;
45254;SDS011;30989;52.078;21.014;2023-02-18T04:42:18;8.02;;;1.50;;
45254;SDS011;30989;52.078;21.014;2023-02-18T04:44:44;7.18;;;1.70;;
45254;SDS011;30989;52.078;21.014;2023-02-18T04:47:09;9.30;;;1.38;;
45254;SDS011;30989;52.078;21.014;2023-02-18T04:49:34;10.25;;;1.63;;
45254;SDS011;30989;52.078;21.014;2023-02-18T04:52:00;9.15;;;1.75;;
45254;SDS011;30989;52.078;21.014;2023-02-18T04:54:26;10.18;;;1.75;;
45254;SDS011;30989;52.078;21.014;2023-02-18T04:56:52;9.18;;;1.75;;
45254;SDS011;30989;52.078;21.014;2023-02-18T04:59:17;11.23;;;1.48;;
45254;SDS011;30989;52.078;21.014;2023-02-18T05:01:43;9.32;;;1.52;;
45254;SDS011;30989;52.078;21.014;2023-02-18T05:04:08;5.68;;;1.27;;
45254;SDS011;30989;52.078;21.014;2023-02-18T05:06:33;6.43;;;1.58;;
45254;SDS011;30989;52.078;21.014;2023-02-18T05:08:59;6.97;;;1.30;;
45254;SDS011;30989;52.078;21.014;2023-02-18T05:11:24;9.48;;;1.35;;
45254;SDS011;30989;52.078;21.014;2023-02-18T05:13:50;12.88;;;2.13;;
45254;SDS011;30989;52.078;21.014;2023-02-18T05:16:15;7.63;;;1.55;;
45254;SDS011;30989;52.078;21.014;2023-02-18T05:18:41;11.20;;;2.20;;
45254;SDS011;30989;52.078;21.014;2023-02-18T05:21:06;3.72;;;0.90;;
45254;SDS011;30989;52.078;21.014;2023-02-18T05:23:32;10.60;;;2.55;;
45254;SDS011;30989;52.078;21.014;2023-02-18T05:25:58;8.80;;;1.50;;
45254;SDS011;30989;52.078;21.014;2023-02-18T05:28:23;6.85;;;1.63;;
45254;SDS011;30989;52.078;21.014;2023-02-18T05:30:49;6.03;;;1.13;;
45254;SDS011;30989;52.078;21.014;2023-02-18T05:33:14;10.52;;;2.13;;
45254;SDS011;30989;52.078;21.014;2023-02-18T05:35:40;6.25;;;1.10;;
45254;SDS011;30989;52.078;21.014;2023-02-18T05:38:05;6.90;;;1.70;;
45254;SDS011;30989;52.078;21.014;2023-02-18T05:40:31;9.00;;;1.98;;
45254;SDS011;30989;52.078;21.014;2023-02-18T05:42:56;8.93;;;1.50;;
45254;SDS011;30989;52.078;21.014;2023-02-18T05:45:22;6.20;;;1.30;;
45254;SDS011;30989;52.078;21.014;2023-02-18T05:47:47;11.60;;;1.42;;
45254;SDS011;30989;52.078;21.014;2023-02-18T05:50:13;9.73;;;2.15;;
45254;SDS011;30989;52.078;21.014;2023-02-18T05:52:38;6.93;;;1.75;;
45254;SDS011;30989;52.078;21.014;2023-02-18T05:55:04;7.90;;;2.40;;
45254;SDS011;30989;52.078;21.014;2023-02-18T05:57:30;5.50;;;1.27;;
45254;SDS011;30989;52.078;21.014;2023-02-18T05:59:55;7.13;;;1.63;;
45254;SDS011;30989;52.078;21.014;2023-02-18T06:02:21;6.72;;;1.98;;
45254;SDS011;30989;52.078;21.014;2023-02-18T06:04:46;12.13;;;1.63;;
45254;SDS011;30989;52.078;21.014;2023-02-18T06:07:12;11.35;;;1.88;;
45254;SDS011;30989;52.078;21.014;2023-02-18T06:09:37;13.85;;;2.55;;
45254;SDS011;30989;52.078;21.014;2023-02-18T06:12:03;7.35;;;1.52;;
45254;SDS011;30989;52.078;21.014;2023-02-18T06:14:28;10.95;;;1.50;;
45254;SDS011;30989;52.078;21.014;2023-02-18T06:16:54;7.68;;;1.75;;
45254;SDS011;30989;52.078;21.014;2023-02-18T06:19:19;12.23;;;2.03;;
45254;SDS011;30989;52.078;21.014;2023-02-18T06:21:44;10.05;;;1.75;;
45254;SDS011;30989;52.078;21.014;2023-02-18T06:24:10;4.82;;;1.20;;
45254;SDS011;30989;52.078;21.014;2023-02-18T06:26:35;6.57;;;1.70;;
45254;SDS011;30989;52.078;21.014;2023-02-18T06:29:01;5.95;;;1.50;;
45254;SDS011;30989;52.078;21.014;2023-02-18T06:31:27;12.50;;;2.03;;
45254;SDS011;30989;52.078;21.014;2023-02-18T06:33:53;18.27;;;3.85;;
45254;SDS011;30989;52.078;21.014;2023-02-18T06:36:18;8.60;;;1.65;;
45254;SDS011;30989;52.078;21.014;2023-02-18T06:38:44;10.98;;;2.03;;
45254;SDS011;30989;52.078;21.014;2023-02-18T06:41:11;11.07;;;1.85;;
45254;SDS011;30989;52.078;21.014;2023-02-18T06:43:37;11.38;;;1.90;;
45254;SDS011;30989;52.078;21.014;2023-02-18T06:46:03;11.18;;;1.65;;
45254;SDS011;30989;52.078;21.014;2023-02-18T06:48:29;6.97;;;1.10;;
45254;SDS011;30989;52.078;21.014;2023-02-18T06:50:55;9.85;;;1.30;;
45254;SDS011;30989;52.078;21.014;2023-02-18T06:53:20;10.15;;;2.10;;
45254;SDS011;30989;52.078;21.014;2023-02-18T06:55:46;5.43;;;1.20;;
45254;SDS011;30989;52.078;21.014;2023-02-18T06:58:12;6.55;;;1.23;;
45254;SDS011;30989;52.078;21.014;2023-02-18T07:00:38;5.63;;;1.90;;
45254;SDS011;30989;52.078;21.014;2023-02-18T07:03:04;6.43;;;1.23;;
45254;SDS011;30989;52.078;21.014;2023-02-18T07:05:30;6.13;;;1.20;;
45254;SDS011;30989;52.078;21.014;2023-02-18T07:07:55;8.98;;;1.65;;
45254;SDS011;30989;52.078;21.014;2023-02-18T07:10:21;5.57;;;1.35;;
45254;SDS011;30989;52.078;21.014;2023-02-18T07:12:46;10.63;;;1.70;;
45254;SDS011;30989;52.078;21.014;2023-02-18T07:15:12;9.85;;;1.38;;
45254;SDS011;30989;52.078;21.014;2023-02-18T07:17:38;10.95;;;1.70;;
45254;SDS011;30989;52.078;21.014;2023-02-18T07:20:04;10.93;;;1.67;;
45254;SDS011;30989;52.078;21.014;2023-02-18T07:22:30;7.90;;;1.30;;
45254;SDS011;30989;52.078;21.014;2023-02-18T07:24:55;7.95;;;1.38;;
45254;SDS011;30989;52.078;21.014;2023-02-18T07:27:21;13.00;;;1.65;;
45254;SDS011;30989;52.078;21.014;2023-02-18T07:29:46;5.60;;;1.30;;
45254;SDS011;30989;52.078;21.014;2023-02-18T07:32:13;11.25;;;2.35;;
45254;SDS011;30989;52.078;21.014;2023-02-18T07:34:40;7.30;;;1.73;;
45254;SDS011;30989;52.078;21.014;2023-02-18T07:37:06;8.35;;;1.58;;
45254;SDS011;30989;52.078;21.014;2023-02-18T07:39:38;8.07;;;1.85;;
45254;SDS011;30989;52.078;21.014;2023-02-18T07:42:05;6.55;;;1.60;;
45254;SDS011;30989;52.078;21.014;2023-02-18T07:44:31;9.05;;;1.58;;
45254;SDS011;30989;52.078;21.014;2023-02-18T07:46:57;5.43;;;1.30;;
45254;SDS011;30989;52.078;21.014;2023-02-18T07:49:22;9.10;;;1.75;;
45254;SDS011;30989;52.078;21.014;2023-02-18T07:51:48;7.30;;;2.22;;
45254;SDS011;30989;52.078;21.014;2023-02-18T07:54:14;6.32;;;1.45;;
45254;SDS011;30989;52.078;21.014;2023-02-18T07:56:40;6.60;;;1.20;;
45254;SDS011;30989;52.078;21.014;2023-02-18T07:59:07;11.27;;;1.63;;
45254;SDS011;30989;52.078;21.014;2023-02-18T08:01:33;7.60;;;1.73;;
45254;SDS011;30989;52.078;21.014;2023-02-18T08:03:58;8.32;;;2.13;;
45254;SDS011;30989;52.078;21.014;2023-02-18T08:06:25;6.20;;;1.40;;
45254;SDS011;30989;52.078;21.014;2023-02-18T08:08:54;13.27;;;1.63;;
45254;SDS011;30989;52.078;21.014;2023-02-18T08:11:19;12.95;;;2.35;;
45254;SDS011;30989;52.078;21.014;2023-02-18T08:13:45;9.80;;;1.88;;
45254;SDS011;30989;52.078;21.014;2023-02-18T08:16:12;12.02;;;1.95;;
45254;SDS011;30989;52.078;21.014;2023-02-18T08:18:37;9.82;;;1.73;;
45254;SDS011;30989;52.078;21.014;2023-02-18T08:21:03;12.85;;;2.35;;
45254;SDS011;30989;52.078;21.014;2023-02-18T08:23:28;9.02;;;1.40;;
45254;SDS011;30989;52.078;21.014;2023-02-18T08:25:54;16.20;;;1.85;;
45254;SDS011;30989;52.078;21.014;2023-02-18T08:28:20;9.43;;;2.33;;
45254;SDS011;30989;52.078;21.014;2023-02-18T08:30:47;10.38;;;1.55;;
45254;SDS011;30989;52.078;21.014;2023-02-18T08:33:14;7.68;;;1.80;;
45254;SDS011;30989;52.078;21.014;2023-02-18T08:35:40;6.93;;;1.50;;
45254;SDS011;30989;52.078;21.014;2023-02-18T08:38:06;5.15;;;1.27;;
45254;SDS011;30989;52.078;21.014;2023-02-18T08:40:31;9.15;;;1.48;;
45254;SDS011;30989;52.078;21.014;2023-02-18T08:42:57;9.20;;;1.58;;
45254;SDS011;30989;52.078;21.014;2023-02-18T08:45:22;10.18;;;1.65;;
45254;SDS011;30989;52.078;21.014;2023-02-18T08:47:48;10.07;;;1.80;;
45254;SDS011;30989;52.078;21.014;2023-02-18T08:50:13;7.07;;;1.65;;
45254;SDS011;30989;52.078;21.014;2023-02-18T08:52:39;6.10;;;1.45;;
45254;SDS011;30989;52.078;21.014;2023-02-18T08:55:05;8.40;;;1.60;;
45254;SDS011;30989;52.078;21.014;2023-02-18T08:57:31;12.73;;;2.53;;
45254;SDS011;30989;52.078;21.014;2023-02-18T08:59:57;7.70;;;2.00;;
45254;SDS011;30989;52.078;21.014;2023-02-18T09:02:22;10.68;;;2.05;;
45254;SDS011;30989;52.078;21.014;2023-02-18T09:04:47;10.88;;;3.00;;
45254;SDS011;30989;52.078;21.014;2023-02-18T09:07:13;8.40;;;1.80;;
45254;SDS011;30989;52.078;21.014;2023-02-18T09:09:39;6.78;;;1.63;;
45254;SDS011;30989;52.078;21.014;2023-02-18T09:12:04;7.43;;;2.28;;
45254;SDS011;30989;52.078;21.014;2023-02-18T09:14:30;9.43;;;1.90;;
45254;SDS011;30989;52.078;21.014;2023-02-18T09:16:56;8.77;;;1.75;;
45254;SDS011;30989;52.078;21.014;2023-02-18T09:19:22;11.23;;;2.25;;
45254;SDS011;30989;52.078;21.014;2023-02-18T09:21:48;8.55;;;1.52;;
45254;SDS011;30989;52.078;21.014;2023-02-18T09:24:14;9.60;;;2.03;;
45254;SDS011;30989;52.078;21.014;2023-02-18T09:26:39;12.43;;;2.40;;
45254;SDS011;30989;52.078;21.014;2023-02-18T09:29:05;16.63;;;2.97;;
45254;SDS011;30989;52.078;21.014;2023-02-18T09:31:30;9.38;;;1.83;;
45254;SDS011;30989;52.078;21.014;2023-02-18T09:33:57;7.38;;;1.65;;
45254;SDS011;30989;52.078;21.014;2023-02-18T09:36:25;11.00;;;2.22;;
45254;SDS011;30989;52.078;21.014;2023-02-18T09:38:51;9.25;;;2.20;;
45254;SDS011;30989;52.078;21.014;2023-02-18T09:44:01;14.88;;;3.75;;
45254;SDS011;30989;52.078;21.014;2023-02-18T09:46:34;9.02;;;1.80;;
45254;SDS011;30989;52.078;21.014;2023-02-18T09:49:11;20.00;;;2.78;;
45254;SDS011;30989;52.078;21.014;2023-02-18T09:51:40;11.45;;;2.72;;
45254;SDS011;30989;52.078;21.014;2023-02-18T09:54:10;12.13;;;2.47;;
45254;SDS011;30989;52.078;21.014;2023-02-18T09:56:38;9.25;;;1.50;;
45254;SDS011;30989;52.078;21.014;2023-02-18T09:59:05;10.25;;;2.33;;
45254;SDS011;30989;52.078;21.014;2023-02-18T10:01:37;12.10;;;2.67;;
45254;SDS011;30989;52.078;21.014;2023-02-18T10:07:22;14.18;;;3.25;;
45254;SDS011;30989;52.078;21.014;2023-02-18T10:09:52;9.07;;;1.98;;
45254;SDS011;30989;52.078;21.014;2023-02-18T10:12:20;9.50;;;2.83;;
45254;SDS011;30989;52.078;21.014;2023-02-18T10:14:52;11.20;;;2.30;;
45254;SDS011;30989;52.078;21.014;2023-02-18T10:17:19;9.40;;;1.67;;
45254;SDS011;30989;52.078;21.014;2023-02-18T10:19:47;10.77;;;2.65;;
45254;SDS011;30989;52.078;21.014;2023-02-18T10:22:15;8.73;;;2.08;;
45254;SDS011;30989;52.078;21.014;2023-02-18T10:24:45;16.50;;;2.88;;
45254;SDS011;30989;52.078;21.014;2023-02-18T10:30:32;10.52;;;2.00;;
45254;SDS011;30989;52.078;21.014;2023-02-18T10:35:53;10.05;;;2.45;;
45254;SDS011;30989;52.078;21.014;2023-02-18T10:46:46;10.20;;;2.20;;
45254;SDS011;30989;52.078;21.014;2023-02-18T10:51:55;11.98;;;2.97;;
45254;SDS011;30989;52.078;21.014;2023-02-18T10:54:23;11.55;;;2.15;;
45254;SDS011;30989;52.078;21.014;2023-02-18T10:56:52;9.55;;;1.92;;
45254;SDS011;30989;52.078;21.014;2023-02-18T10:59:24;11.65;;;2.30;;
45254;SDS011;30989;52.078;21.014;2023-02-18T11:01:55;14.82;;;2.10;;
45254;SDS011;30989;52.078;21.014;2023-02-18T11:04:25;9.75;;;1.98;;
45254;SDS011;30989;52.078;21.014;2023-02-18T11:07:12;10.90;;;2.33;;
45254;SDS011;30989;52.078;21.014;2023-02-18T11:09:41;9.18;;;2.13;;
45254;SDS011;30989;52.078;21.014;2023-02-18T11:12:28;10.40;;;2.65;;
45254;SDS011;30989;52.078;21.014;2023-02-18T11:15:16;15.38;;;3.30;;
45254;SDS011;30989;52.078;21.014;2023-02-18T11:17:45;11.18;;;2.45;;
45254;SDS011;30989;52.078;21.014;2023-02-18T11:22:57;9.80;;;1.70;;
45254;SDS011;30989;52.078;21.014;2023-02-18T11:28:30;9.15;;;2.20;;
45254;SDS011;30989;52.078;21.014;2023-02-18T11:31:04;11.77;;;3.15;;
45254;SDS011;30989;52.078;21.014;2023-02-18T11:33:31;12.32;;;2.13;;
45254;SDS011;30989;52.078;21.014;2023-02-18T11:35:58;10.88;;;2.67;;
45254;SDS011;30989;52.078;21.014;2023-02-18T11:38:41;9.98;;;1.85;;
45254;SDS011;30989;52.078;21.014;2023-02-18T11:41:15;7.88;;;1.88;;
45254;SDS011;30989;52.078;21.014;2023-02-18T11:43:45;5.25;;;1.58;;
45254;SDS011;30989;52.078;21.014;2023-02-18T11:46:21;12.90;;;2.90;;
45254;SDS011;30989;52.078;21.014;2023-02-18T11:48:48;8.57;;;1.90;;
45254;SDS011;30989;52.078;21.014;2023-02-18T11:53:54;10.98;;;2.42;;
45254;SDS011;30989;52.078;21.014;2023-02-18T11:56:25;10.07;;;1.70;;
45254;SDS011;30989;52.078;21.014;2023-02-18T11:58:53;9.55;;;1.75;;
45254;SDS011;30989;52.078;21.014;2023-02-18T12:04:13;8.98;;;2.70;;
45254;SDS011;30989;52.078;21.014;2023-02-18T12:06:47;10.70;;;2.10;;
45254;SDS011;30989;52.078;21.014;2023-02-18T12:09:39;7.75;;;1.83;;
45254;SDS011;30989;52.078;21.014;2023-02-18T12:12:05;12.30;;;2.05;;
45254;SDS011;30989;52.078;21.014;2023-02-18T12:14:37;11.55;;;2.35;;
45254;SDS011;30989;52.078;21.014;2023-02-18T12:20:14;13.35;;;2.80;;
45254;SDS011;30989;52.078;21.014;2023-02-18T12:28:28;8.57;;;2.38;;
45254;SDS011;30989;52.078;21.014;2023-02-18T12:33:56;20.85;;;2.65;;
45254;SDS011;30989;52.078;21.014;2023-02-18T12:44:19;10.02;;;2.72;;
45254;SDS011;30989;52.078;21.014;2023-02-18T12:58:42;13.20;;;2.83;;
45254;SDS011;30989;52.078;21.014;2023-02-18T13:01:15;8.82;;;2.67;;
45254;SDS011;30989;52.078;21.014;2023-02-18T13:14:30;9.20;;;2.17;;
45254;SDS011;30989;52.078;21.014;2023-02-18T13:17:02;8.40;;;1.73;;
45254;SDS011;30989;52.078;21.014;2023-02-18T13:19:33;10.60;;;2.10;;
45254;SDS011;30989;52.078;21.014;2023-02-18T13:22:09;6.80;;;1.88;;
45254;SDS011;30989;52.078;21.014;2023-02-18T13:24:40;12.75;;;2.38;;
45254;SDS011;30989;52.078;21.014;2023-02-18T13:29:43;9.85;;;2.58;;
45254;SDS011;30989;52.078;21.014;2023-02-18T13:40:17;11.63;;;2.10;;
45254;SDS011;30989;52.078;21.014;2023-02-18T13:42:50;10.38;;;2.55;;
45254;SDS011;30989;52.078;21.014;2023-02-18T13:45:30;13.80;;;2.75;;
45254;SDS011;30989;52.078;21.014;2023-02-18T13:47:57;6.82;;;2.00;;
45254;SDS011;30989;52.078;21.014;2023-02-18T13:50:25;7.65;;;2.10;;
45254;SDS011;30989;52.078;21.014;2023-02-18T13:58:43;12.07;;;2.20;;
45254;SDS011;30989;52.078;21.014;2023-02-18T14:08:39;7.32;;;2.03;;
45254;SDS011;30989;52.078;21.014;2023-02-18T14:13:43;13.37;;;2.33;;
45254;SDS011;30989;52.078;21.014;2023-02-18T14:16:13;9.18;;;3.05;;
45254;SDS011;30989;52.078;21.014;2023-02-18T14:26:08;8.52;;;2.20;;
45254;SDS011;30989;52.078;21.014;2023-02-18T14:33:31;7.53;;;2.35;;
45254;SDS011;30989;52.078;21.014;2023-02-18T14:44:41;6.80;;;2.10;;
45254;SDS011;30989;52.078;21.014;2023-02-18T14:47:39;10.27;;;2.58;;
45254;SDS011;30989;52.078;21.014;2023-02-18T14:50:09;6.35;;;2.38;;
45254;SDS011;30989;52.078;21.014;2023-02-18T14:55:18;17.90;;;2.72;;
45254;SDS011;30989;52.078;21.014;2023-02-18T14:57:49;5.00;;;1.42;;
45254;SDS011;30989;52.078;21.014;2023-02-18T15:00:21;6.50;;;1.55;;
45254;SDS011;30989;52.078;21.014;2023-02-18T15:02:50;5.05;;;1.70;;
45254;SDS011;30989;52.078;21.014;2023-02-18T15:08:02;10.57;;;2.53;;
45254;SDS011;30989;52.078;21.014;2023-02-18T15:16:11;5.68;;;1.95;;
45254;SDS011;30989;52.078;21.014;2023-02-18T15:18:41;11.25;;;2.15;;
45254;SDS011;30989;52.078;21.014;2023-02-18T15:21:23;5.32;;;2.25;;
45254;SDS011;30989;52.078;21.014;2023-02-18T15:23:53;8.05;;;1.33;;
45254;SDS011;30989;52.078;21.014;2023-02-18T15:26:19;7.25;;;1.38;;
45254;SDS011;30989;52.078;21.014;2023-02-18T15:28:59;7.97;;;1.70;;
45254;SDS011;30989;52.078;21.014;2023-02-18T15:31:27;5.30;;;1.48;;
45254;SDS011;30989;52.078;21.014;2023-02-18T15:33:54;5.25;;;1.52;;
45254;SDS011;30989;52.078;21.014;2023-02-18T15:36:20;6.47;;;2.13;;
45254;SDS011;30989;52.078;21.014;2023-02-18T15:38:46;9.73;;;2.47;;
45254;SDS011;30989;52.078;21.014;2023-02-18T15:41:15;21.23;;;5.00;;
45254;SDS011;30989;52.078;21.014;2023-02-18T15:43:51;14.00;;;4.43;;
45254;SDS011;30989;52.078;21.014;2023-02-18T15:46:17;14.00;;;2.95;;
45254;SDS011;30989;52.078;21.014;2023-02-18T15:48:46;13.80;;;2.58;;
45254;SDS011;30989;52.078;21.014;2023-02-18T15:51:19;12.40;;;2.53;;
45254;SDS011;30989;52.078;21.014;2023-02-18T15:53:57;7.57;;;1.80;;
45254;SDS011;30989;52.078;21.014;2023-02-18T16:01:49;12.00;;;3.15;;
45254;SDS011;30989;52.078;21.014;2023-02-18T16:04:18;12.95;;;3.45;;
45254;SDS011;30989;52.078;21.014;2023-02-18T16:06:48;10.35;;;2.50;;
45254;SDS011;30989;52.078;21.014;2023-02-18T16:09:17;11.93;;;2.80;;
45254;SDS011;30989;52.078;21.014;2023-02-18T16:11:47;8.85;;;2.08;;
45254;SDS011;30989;52.078;21.014;2023-02-18T16:14:26;9.98;;;2.42;;
45254;SDS011;30989;52.078;21.014;2023-02-18T16:17:22;7.43;;;2.88;;
45254;SDS011;30989;52.078;21.014;2023-02-18T16:24:59;14.45;;;5.53;;
45254;SDS011;30989;52.078;21.014;2023-02-18T16:27:32;13.15;;;3.20;;
45254;SDS011;30989;52.078;21.014;2023-02-18T16:30:02;8.18;;;2.45;;
45254;SDS011;30989;52.078;21.014;2023-02-18T16:32:39;11.95;;;3.47;;
45254;SDS011;30989;52.078;21.014;2023-02-18T16:35:04;10.07;;;3.28;;
45254;SDS011;30989;52.078;21.014;2023-02-18T16:37:30;17.65;;;3.53;;
45254;SDS011;30989;52.078;21.014;2023-02-18T16:43:08;9.35;;;2.60;;
45254;SDS011;30989;52.078;21.014;2023-02-18T16:45:37;8.73;;;2.40;;
45254;SDS011;30989;52.078;21.014;2023-02-18T16:48:05;11.63;;;2.15;;
45254;SDS011;30989;52.078;21.014;2023-02-18T16:50:39;8.10;;;2.17;;
45254;SDS011;30989;52.078;21.014;2023-02-18T16:53:05;7.28;;;2.60;;
45254;SDS011;30989;52.078;21.014;2023-02-18T16:55:30;8.18;;;2.38;;
45254;SDS011;30989;52.078;21.014;2023-02-18T16:57:56;8.38;;;2.47;;
45254;SDS011;30989;52.078;21.014;2023-02-18T17:00:22;7.32;;;2.45;;
45254;SDS011;30989;52.078;21.014;2023-02-18T17:02:48;10.02;;;3.15;;
45254;SDS011;30989;52.078;21.014;2023-02-18T17:05:18;10.35;;;2.80;;
45254;SDS011;30989;52.078;21.014;2023-02-18T17:07:45;9.85;;;2.92;;
45254;SDS011;30989;52.078;21.014;2023-02-18T17:10:11;9.75;;;3.03;;
45254;SDS011;30989;52.078;21.014;2023-02-18T17:12:37;8.60;;;3.67;;
45254;SDS011;30989;52.078;21.014;2023-02-18T17:15:26;18.65;;;4.47;;
45254;SDS011;30989;52.078;21.014;2023-02-18T17:17:54;11.80;;;3.67;;
45254;SDS011;30989;52.078;21.014;2023-02-18T17:20:22;8.13;;;3.55;;
45254;SDS011;30989;52.078;21.014;2023-02-18T17:22:47;10.38;;;3.75;;
45254;SDS011;30989;52.078;21.014;2023-02-18T17:25:14;10.85;;;2.92;;
45254;SDS011;30989;52.078;21.014;2023-02-18T17:27:46;12.98;;;4.18;;
45254;SDS011;30989;52.078;21.014;2023-02-18T17:30:12;8.40;;;3.95;;
45254;SDS011;30989;52.078;21.014;2023-02-18T17:32:38;10.75;;;3.60;;
45254;SDS011;30989;52.078;21.014;2023-02-18T17:35:03;15.90;;;4.70;;
45254;SDS011;30989;52.078;21.014;2023-02-18T17:37:29;8.68;;;3.88;;
45254;SDS011;30989;52.078;21.014;2023-02-18T17:39:54;10.20;;;4.30;;